sensor_id;sensor_type;location;lat;lon;timestamp;pressure;altitude;pressure_sealevel;temperature;humidity
63033;BME280;49121;38.932;-9.018;2023-04-08T00:02:50;111992.50;;;-145.11;56.50
63033;BME280;49121;38.932;-9.018;2023-04-08T00:04:51;111992.50;;;-145.11;57.34
63033;BME280;49121;38.932;-9.018;2023-04-08T00:06:51;111992.50;;;-145.11;57.09
63033;BME280;49121;38.932;-9.018;2023-04-08T00:09:04;111992.50;;;-145.11;56.99
63033;BME280;49121;38.932;-9.018;2023-04-08T00:11:09;111992.50;;;-145.11;56.83
63033;BME280;49121;38.932;-9.018;2023-04-08T00:13:10;111992.50;;;-145.11;57.06
63033;BME280;49121;38.932;-9.018;2023-04-08T00:15:10;111992.50;;;-145.11;56.86
63033;BME280;49121;38.932;-9.018;2023-04-08T00:17:29;111992.50;;;-145.11;56.80
63033;BME280;49121;38.932;-9.018;2023-04-08T00:19:48;111992.50;;;-145.11;57.45
63033;BME280;49121;38.932;-9.018;2023-04-08T00:22:07;111992.50;;;-145.11;57.70
63033;BME280;49121;38.932;-9.018;2023-04-08T00:24:08;111992.50;;;-145.11;58.04
63033;BME280;49121;38.932;-9.018;2023-04-08T00:26:08;111992.50;;;-145.11;58.01
63033;BME280;49121;38.932;-9.018;2023-04-08T00:28:09;111992.50;;;-145.11;58.18
63033;BME280;49121;38.932;-9.018;2023-04-08T00:30:10;111992.50;;;-145.11;58.13
63033;BME280;49121;38.932;-9.018;2023-04-08T00:32:11;111992.50;;;-145.11;58.27
63033;BME280;49121;38.932;-9.018;2023-04-08T00:34:12;111992.50;;;-145.11;58.59
63033;BME280;49121;38.932;-9.018;2023-04-08T00:36:12;111992.50;;;-145.11;58.50
63033;BME280;49121;38.932;-9.018;2023-04-08T00:38:13;111992.50;;;-145.11;58.98
63033;BME280;49121;38.932;-9.018;2023-04-08T00:40:13;111992.50;;;-145.11;58.88
63033;BME280;49121;38.932;-9.018;2023-04-08T00:42:14;111992.50;;;-145.11;59.11
63033;BME280;49121;38.932;-9.018;2023-04-08T00:44:33;111992.50;;;-145.11;59.52
63033;BME280;49121;38.932;-9.018;2023-04-08T00:46:55;111992.50;;;-145.11;59.25
63033;BME280;49121;38.932;-9.018;2023-04-08T00:48:56;111992.50;;;-145.11;58.95
63033;BME280;49121;38.932;-9.018;2023-04-08T00:50:57;111992.50;;;-145.11;58.85
63033;BME280;49121;38.932;-9.018;2023-04-08T00:52:57;111992.50;;;-145.11;59.08
63033;BME280;49121;38.932;-9.018;2023-04-08T01:02:17;111992.50;;;-145.11;59.92
63033;BME280;49121;38.932;-9.018;2023-04-08T01:08:28;111992.50;;;-145.11;59.92
63033;BME280;49121;38.932;-9.018;2023-04-08T01:10:50;111992.50;;;-145.11;60.15
63033;BME280;49121;38.932;-9.018;2023-04-08T01:12:55;111992.50;;;-145.11;60.12
63033;BME280;49121;38.932;-9.018;2023-04-08T01:15:00;111992.50;;;-145.11;60.26
63033;BME280;49121;38.932;-9.018;2023-04-08T01:17:05;111992.50;;;-145.11;60.23
63033;BME280;49121;38.932;-9.018;2023-04-08T01:19:07;111992.50;;;-145.11;60.12
63033;BME280;49121;38.932;-9.018;2023-04-08T01:21:11;111992.50;;;-145.11;60.32
63033;BME280;49121;38.932;-9.018;2023-04-08T01:23:22;111992.50;;;-145.11;60.28
63033;BME280;49121;38.932;-9.018;2023-04-08T01:25:32;111992.50;;;-145.11;60.54
63033;BME280;49121;38.932;-9.018;2023-04-08T01:27:33;111992.50;;;-145.11;60.63
63033;BME280;49121;38.932;-9.018;2023-04-08T01:29:34;111992.50;;;-145.11;60.92
63033;BME280;49121;38.932;-9.018;2023-04-08T01:31:36;111992.50;;;-145.11;61.22
63033;BME280;49121;38.932;-9.018;2023-04-08T01:33:38;111992.50;;;-145.11;61.38
63033;BME280;49121;38.932;-9.018;2023-04-08T01:35:39;111992.50;;;-145.11;61.63
63033;BME280;49121;38.932;-9.018;2023-04-08T01:37:39;111992.50;;;-145.11;61.60
63033;BME280;49121;38.932;-9.018;2023-04-08T01:39:41;111992.50;;;-145.11;61.44
63033;BME280;49121;38.932;-9.018;2023-04-08T01:41:45;111992.50;;;-145.11;61.57
63033;BME280;49121;38.932;-9.018;2023-04-08T01:43:46;111992.50;;;-145.11;62.05
63033;BME280;49121;38.932;-9.018;2023-04-08T01:45:47;111992.50;;;-145.11;62.00
63033;BME280;49121;38.932;-9.018;2023-04-08T01:48:07;111992.50;;;-145.11;61.92
63033;BME280;49121;38.932;-9.018;2023-04-08T01:50:09;111992.50;;;-145.11;61.74
63033;BME280;49121;38.932;-9.018;2023-04-08T01:52:24;111992.50;;;-145.11;61.55
63033;BME280;49121;38.932;-9.018;2023-04-08T01:54:26;111992.50;;;-145.11;61.82
63033;BME280;49121;38.932;-9.018;2023-04-08T01:56:27;111992.50;;;-145.11;61.84
63033;BME280;49121;38.932;-9.018;2023-04-08T02:01:08;111992.50;;;-145.11;61.82
63033;BME280;49121;38.932;-9.018;2023-04-08T02:03:11;111992.50;;;-145.11;61.86
63033;BME280;49121;38.932;-9.018;2023-04-08T02:05:12;111992.50;;;-145.11;62.02
63033;BME280;49121;38.932;-9.018;2023-04-08T02:07:13;111992.50;;;-145.11;62.03
63033;BME280;49121;38.932;-9.018;2023-04-08T02:09:13;111992.50;;;-145.11;62.05
63033;BME280;49121;38.932;-9.018;2023-04-08T02:11:14;111992.50;;;-145.11;62.74
63033;BME280;49121;38.932;-9.018;2023-04-08T02:13:16;111992.50;;;-145.11;62.72
63033;BME280;49121;38.932;-9.018;2023-04-08T02:15:16;111992.50;;;-145.11;63.00
63033;BME280;49121;38.932;-9.018;2023-04-08T02:21:45;111992.50;;;-145.11;63.09
63033;BME280;49121;38.932;-9.018;2023-04-08T02:23:47;111992.50;;;-145.11;63.25
63033;BME280;49121;38.932;-9.018;2023-04-08T02:25:48;111992.50;;;-145.11;63.28
63033;BME280;49121;38.932;-9.018;2023-04-08T02:30:25;111992.50;;;-145.11;62.99
63033;BME280;49121;38.932;-9.018;2023-04-08T02:32:26;111992.50;;;-145.11;63.09
63033;BME280;49121;38.932;-9.018;2023-04-08T02:34:28;111992.50;;;-145.11;63.26
63033;BME280;49121;38.932;-9.018;2023-04-08T02:36:30;111992.50;;;-145.11;63.18
63033;BME280;49121;38.932;-9.018;2023-04-08T02:38:35;111992.50;;;-145.11;63.09
63033;BME280;49121;38.932;-9.018;2023-04-08T02:40:35;111992.50;;;-145.11;63.31
63033;BME280;49121;38.932;-9.018;2023-04-08T02:42:37;111992.50;;;-145.11;63.15
63033;BME280;49121;38.932;-9.018;2023-04-08T02:44:56;111992.50;;;-145.11;63.07
63033;BME280;49121;38.932;-9.018;2023-04-08T02:47:15;111992.50;;;-145.11;63.14
63033;BME280;49121;38.932;-9.018;2023-04-08T02:49:15;111992.50;;;-145.11;63.26
63033;BME280;49121;38.932;-9.018;2023-04-08T02:51:34;111992.50;;;-145.11;63.53
63033;BME280;49121;38.932;-9.018;2023-04-08T02:53:35;111992.50;;;-145.11;63.21
63033;BME280;49121;38.932;-9.018;2023-04-08T02:55:35;111992.50;;;-145.11;63.07
63033;BME280;49121;38.932;-9.018;2023-04-08T02:57:38;111992.50;;;-145.11;63.51
63033;BME280;49121;38.932;-9.018;2023-04-08T02:59:38;111992.50;;;-145.11;63.13
63033;BME280;49121;38.932;-9.018;2023-04-08T03:03:59;111992.50;;;-145.11;63.38
63033;BME280;49121;38.932;-9.018;2023-04-08T03:05:59;111992.50;;;-145.11;63.03
63033;BME280;49121;38.932;-9.018;2023-04-08T03:08:18;111992.50;;;-145.11;62.78
63033;BME280;49121;38.932;-9.018;2023-04-08T03:10:19;111992.50;;;-145.11;62.93
63033;BME280;49121;38.932;-9.018;2023-04-08T03:12:41;111992.50;;;-145.11;62.67
63033;BME280;49121;38.932;-9.018;2023-04-08T03:14:42;111992.50;;;-145.11;62.63
63033;BME280;49121;38.932;-9.018;2023-04-08T03:16:42;111992.50;;;-145.11;62.55
63033;BME280;49121;38.932;-9.018;2023-04-08T03:18:43;111992.50;;;-145.11;62.64
63033;BME280;49121;38.932;-9.018;2023-04-08T03:21:01;111992.50;;;-145.11;62.66
63033;BME280;49121;38.932;-9.018;2023-04-08T03:27:40;111992.50;;;-145.11;63.21
63033;BME280;49121;38.932;-9.018;2023-04-08T03:29:41;111992.50;;;-145.11;63.42
63033;BME280;49121;38.932;-9.018;2023-04-08T03:31:41;111992.50;;;-145.11;63.42
63033;BME280;49121;38.932;-9.018;2023-04-08T03:33:42;111992.50;;;-145.11;63.40
63033;BME280;49121;38.932;-9.018;2023-04-08T03:35:42;111992.50;;;-145.11;63.20
63033;BME280;49121;38.932;-9.018;2023-04-08T03:37:42;111992.50;;;-145.11;63.02
63033;BME280;49121;38.932;-9.018;2023-04-08T03:40:02;111992.50;;;-145.11;63.06
63033;BME280;49121;38.932;-9.018;2023-04-08T03:42:02;111992.50;;;-145.11;63.26
63033;BME280;49121;38.932;-9.018;2023-04-08T03:44:03;111992.50;;;-145.11;63.34
63033;BME280;49121;38.932;-9.018;2023-04-08T03:46:15;111992.50;;;-145.11;63.04
63033;BME280;49121;38.932;-9.018;2023-04-08T03:48:16;111992.50;;;-145.11;62.94
63033;BME280;49121;38.932;-9.018;2023-04-08T03:50:16;111992.50;;;-145.11;63.00
63033;BME280;49121;38.932;-9.018;2023-04-08T03:52:17;111992.50;;;-145.11;62.75
63033;BME280;49121;38.932;-9.018;2023-04-08T03:54:17;111992.50;;;-145.11;62.90
63033;BME280;49121;38.932;-9.018;2023-04-08T03:56:18;111992.50;;;-145.11;63.01
63033;BME280;49121;38.932;-9.018;2023-04-08T03:58:22;111992.50;;;-145.11;62.57
63033;BME280;49121;38.932;-9.018;2023-04-08T04:00:22;111992.50;;;-145.11;62.81
63033;BME280;49121;38.932;-9.018;2023-04-08T04:02:23;111992.50;;;-145.11;62.61
63033;BME280;49121;38.932;-9.018;2023-04-08T04:04:42;111992.50;;;-145.11;63.25
63033;BME280;49121;38.932;-9.018;2023-04-08T04:09:01;111992.50;;;-145.11;62.92
63033;BME280;49121;38.932;-9.018;2023-04-08T04:11:02;111992.50;;;-145.11;63.03
63033;BME280;49121;38.932;-9.018;2023-04-08T04:13:02;111992.50;;;-145.11;63.49
63033;BME280;49121;38.932;-9.018;2023-04-08T04:15:21;111992.50;;;-145.11;63.98
63033;BME280;49121;38.932;-9.018;2023-04-08T04:17:22;111992.50;;;-145.11;64.11
63033;BME280;49121;38.932;-9.018;2023-04-08T04:19:22;111992.50;;;-145.11;64.70
63033;BME280;49121;38.932;-9.018;2023-04-08T04:23:44;111992.50;;;-145.11;65.38
63033;BME280;49121;38.932;-9.018;2023-04-08T04:25:44;111992.50;;;-145.11;65.32
63033;BME280;49121;38.932;-9.018;2023-04-08T04:27:54;111992.50;;;-145.11;65.79
63033;BME280;49121;38.932;-9.018;2023-04-08T04:29:54;111992.50;;;-145.11;66.68
63033;BME280;49121;38.932;-9.018;2023-04-08T04:31:54;111992.50;;;-145.11;67.20
63033;BME280;49121;38.932;-9.018;2023-04-08T04:36:14;111992.50;;;-145.11;68.46
63033;BME280;49121;38.932;-9.018;2023-04-08T04:38:15;111992.50;;;-145.11;68.55
63033;BME280;49121;38.932;-9.018;2023-04-08T04:40:15;111992.50;;;-145.11;68.46
63033;BME280;49121;38.932;-9.018;2023-04-08T04:42:16;111992.50;;;-145.11;68.88
63033;BME280;49121;38.932;-9.018;2023-04-08T04:44:16;111992.50;;;-145.11;68.86
63033;BME280;49121;38.932;-9.018;2023-04-08T04:46:17;111992.50;;;-145.11;69.49
63033;BME280;49121;38.932;-9.018;2023-04-08T04:48:17;111992.50;;;-145.11;69.66
63033;BME280;49121;38.932;-9.018;2023-04-08T04:50:36;111992.50;;;-145.11;69.85
63033;BME280;49121;38.932;-9.018;2023-04-08T04:52:37;111992.50;;;-145.11;70.10
63033;BME280;49121;38.932;-9.018;2023-04-08T04:54:37;111992.50;;;-145.11;70.27
63033;BME280;49121;38.932;-9.018;2023-04-08T04:56:38;111992.50;;;-145.11;70.25
63033;BME280;49121;38.932;-9.018;2023-04-08T04:58:40;111992.50;;;-145.11;70.12
63033;BME280;49121;38.932;-9.018;2023-04-08T05:00:41;111992.50;;;-145.11;70.03
63033;BME280;49121;38.932;-9.018;2023-04-08T05:02:41;111992.50;;;-145.11;69.99
63033;BME280;49121;38.932;-9.018;2023-04-08T05:10:00;111992.50;;;-145.11;70.59
63033;BME280;49121;38.932;-9.018;2023-04-08T05:12:00;111992.50;;;-145.11;70.69
63033;BME280;49121;38.932;-9.018;2023-04-08T05:14:01;111992.50;;;-145.11;70.80
63033;BME280;49121;38.932;-9.018;2023-04-08T05:16:01;111992.50;;;-145.11;70.31
63033;BME280;49121;38.932;-9.018;2023-04-08T05:18:02;111992.50;;;-145.11;70.49
63033;BME280;49121;38.932;-9.018;2023-04-08T05:20:02;111992.50;;;-145.11;70.97
63033;BME280;49121;38.932;-9.018;2023-04-08T05:22:04;111992.50;;;-145.11;70.98
63033;BME280;49121;38.932;-9.018;2023-04-08T05:26:24;111992.50;;;-145.11;71.07
63033;BME280;49121;38.932;-9.018;2023-04-08T05:31:03;111992.50;;;-145.11;71.16
63033;BME280;49121;38.932;-9.018;2023-04-08T05:33:03;111992.50;;;-145.11;71.24
63033;BME280;49121;38.932;-9.018;2023-04-08T05:35:04;111992.50;;;-145.11;71.49
63033;BME280;49121;38.932;-9.018;2023-04-08T05:37:22;111992.50;;;-145.11;71.47
63033;BME280;49121;38.932;-9.018;2023-04-08T05:39:23;111992.50;;;-145.11;71.74
63033;BME280;49121;38.932;-9.018;2023-04-08T05:41:42;111992.50;;;-145.11;71.93
63033;BME280;49121;38.932;-9.018;2023-04-08T05:43:42;111992.50;;;-145.11;72.10
63033;BME280;49121;38.932;-9.018;2023-04-08T05:45:43;111992.50;;;-145.11;72.27
63033;BME280;49121;38.932;-9.018;2023-04-08T05:52:59;111992.50;;;-145.11;72.40
63033;BME280;49121;38.932;-9.018;2023-04-08T05:54:59;111992.50;;;-145.11;72.67
63033;BME280;49121;38.932;-9.018;2023-04-08T05:57:00;111992.50;;;-145.11;72.71
63033;BME280;49121;38.932;-9.018;2023-04-08T05:59:00;111992.50;;;-145.11;72.61
63033;BME280;49121;38.932;-9.018;2023-04-08T06:01:01;111992.50;;;-145.11;72.72
63033;BME280;49121;38.932;-9.018;2023-04-08T06:03:01;111992.50;;;-145.11;72.90
63033;BME280;49121;38.932;-9.018;2023-04-08T06:05:02;111992.50;;;-145.11;72.98
63033;BME280;49121;38.932;-9.018;2023-04-08T06:07:05;111992.50;;;-145.11;73.02
63033;BME280;49121;38.932;-9.018;2023-04-08T06:09:10;111992.50;;;-145.11;73.23
63033;BME280;49121;38.932;-9.018;2023-04-08T06:11:10;111992.50;;;-145.11;73.16
63033;BME280;49121;38.932;-9.018;2023-04-08T06:13:11;111992.50;;;-145.11;73.28
63033;BME280;49121;38.932;-9.018;2023-04-08T06:15:11;111992.50;;;-145.11;73.42
63033;BME280;49121;38.932;-9.018;2023-04-08T06:17:12;111992.50;;;-145.11;73.56
63033;BME280;49121;38.932;-9.018;2023-04-08T06:19:12;111992.50;;;-145.11;73.36
63033;BME280;49121;38.932;-9.018;2023-04-08T06:21:12;111992.50;;;-145.11;73.33
63033;BME280;49121;38.932;-9.018;2023-04-08T06:23:32;111992.50;;;-145.11;73.36
63033;BME280;49121;38.932;-9.018;2023-04-08T06:25:32;111992.50;;;-145.11;73.09
63033;BME280;49121;38.932;-9.018;2023-04-08T06:27:33;111992.50;;;-145.11;73.15
63033;BME280;49121;38.932;-9.018;2023-04-08T06:29:33;111992.50;;;-145.11;72.96
63033;BME280;49121;38.932;-9.018;2023-04-08T06:31:34;111992.50;;;-145.11;73.05
63033;BME280;49121;38.932;-9.018;2023-04-08T06:33:34;111992.50;;;-145.11;72.76
63033;BME280;49121;38.932;-9.018;2023-04-08T06:35:38;111992.50;;;-145.11;72.87
63033;BME280;49121;38.932;-9.018;2023-04-08T06:37:38;111992.50;;;-145.11;72.63
63033;BME280;49121;38.932;-9.018;2023-04-08T06:39:39;111992.50;;;-145.11;72.43
63033;BME280;49121;38.932;-9.018;2023-04-08T06:41:39;111992.50;;;-145.11;72.46
63033;BME280;49121;38.932;-9.018;2023-04-08T06:43:53;111992.50;;;-145.11;72.00
63033;BME280;49121;38.932;-9.018;2023-04-08T06:45:54;111992.50;;;-145.11;71.38
63033;BME280;49121;38.932;-9.018;2023-04-08T06:47:54;111992.50;;;-145.11;71.08
63033;BME280;49121;38.932;-9.018;2023-04-08T06:49:55;111992.50;;;-145.11;70.19
63033;BME280;49121;38.932;-9.018;2023-04-08T06:54:37;111992.50;;;-145.11;69.85
63033;BME280;49121;38.932;-9.018;2023-04-08T06:56:38;111992.50;;;-145.11;69.09
63033;BME280;49121;38.932;-9.018;2023-04-08T06:58:38;111992.50;;;-145.11;68.62
63033;BME280;49121;38.932;-9.018;2023-04-08T07:00:39;111992.50;;;-145.11;67.88
63033;BME280;49121;38.932;-9.018;2023-04-08T07:02:41;111992.50;;;-145.11;66.21
63033;BME280;49121;38.932;-9.018;2023-04-08T07:04:41;111992.50;;;-145.11;64.68
63033;BME280;49121;38.932;-9.018;2023-04-08T07:06:42;111992.50;;;-145.11;62.67
63033;BME280;49121;38.932;-9.018;2023-04-08T07:08:42;111992.50;;;-145.11;60.90
63033;BME280;49121;38.932;-9.018;2023-04-08T07:10:43;111992.50;;;-145.11;59.31
63033;BME280;49121;38.932;-9.018;2023-04-08T07:12:44;111992.50;;;-145.11;58.44
63033;BME280;49121;38.932;-9.018;2023-04-08T07:15:08;111992.50;;;-145.11;56.35
63033;BME280;49121;38.932;-9.018;2023-04-08T07:17:27;111992.50;;;-145.11;54.40
63033;BME280;49121;38.932;-9.018;2023-04-08T07:19:27;111992.50;;;-145.11;53.33
63033;BME280;49121;38.932;-9.018;2023-04-08T07:21:46;111992.50;;;-145.11;52.19
63033;BME280;49121;38.932;-9.018;2023-04-08T07:24:05;111992.50;;;-145.11;50.39
63033;BME280;49121;38.932;-9.018;2023-04-08T07:26:24;111992.50;;;-145.11;50.07
63033;BME280;49121;38.932;-9.018;2023-04-08T07:28:43;111992.50;;;-145.11;48.77
63033;BME280;49121;38.932;-9.018;2023-04-08T07:30:47;111992.50;;;-145.11;48.39
63033;BME280;49121;38.932;-9.018;2023-04-08T07:35:44;111992.50;;;-145.11;47.46
63033;BME280;49121;38.932;-9.018;2023-04-08T07:40:08;111992.50;;;-145.11;44.59
63033;BME280;49121;38.932;-9.018;2023-04-08T07:42:09;111992.50;;;-145.11;44.21
63033;BME280;49121;38.932;-9.018;2023-04-08T07:44:09;111992.50;;;-145.11;43.62
63033;BME280;49121;38.932;-9.018;2023-04-08T07:46:10;111992.50;;;-145.11;44.65
63033;BME280;49121;38.932;-9.018;2023-04-08T07:48:10;111992.50;;;-145.11;46.17
63033;BME280;49121;38.932;-9.018;2023-04-08T07:53:07;111992.50;;;-145.11;49.62
63033;BME280;49121;38.932;-9.018;2023-04-08T07:55:09;111992.50;;;-145.11;50.14
63033;BME280;49121;38.932;-9.018;2023-04-08T07:59:32;111992.50;;;-145.11;49.30
63033;BME280;49121;38.932;-9.018;2023-04-08T08:01:33;111992.50;;;-145.11;48.59
63033;BME280;49121;38.932;-9.018;2023-04-08T08:03:34;111992.50;;;-145.11;47.53
63033;BME280;49121;38.932;-9.018;2023-04-08T08:05:53;111992.50;;;-145.11;46.54
63033;BME280;49121;38.932;-9.018;2023-04-08T08:07:54;111992.50;;;-145.11;45.64
63033;BME280;49121;38.932;-9.018;2023-04-08T08:09:55;111992.50;;;-145.11;45.14
63033;BME280;49121;38.932;-9.018;2023-04-08T08:16:33;111992.50;;;-145.11;42.51
63033;BME280;49121;38.932;-9.018;2023-04-08T08:18:34;111992.50;;;-145.11;41.73
63033;BME280;49121;38.932;-9.018;2023-04-08T08:20:53;111992.50;;;-145.11;42.02
63033;BME280;49121;38.932;-9.018;2023-04-08T08:23:12;111992.50;;;-145.11;41.62
63033;BME280;49121;38.932;-9.018;2023-04-08T08:25:12;111992.50;;;-145.11;41.99
63033;BME280;49121;38.932;-9.018;2023-04-08T08:27:31;111992.50;;;-145.11;42.79
63033;BME280;49121;38.932;-9.018;2023-04-08T08:29:33;111992.50;;;-145.11;42.93
63033;BME280;49121;38.932;-9.018;2023-04-08T08:31:34;111992.50;;;-145.11;43.45
63033;BME280;49121;38.932;-9.018;2023-04-08T08:33:34;111992.50;;;-145.11;43.59
63033;BME280;49121;38.932;-9.018;2023-04-08T08:35:35;111992.50;;;-145.11;43.88
63033;BME280;49121;38.932;-9.018;2023-04-08T08:39:55;111992.50;;;-145.11;41.82
63033;BME280;49121;38.932;-9.018;2023-04-08T08:41:56;111992.50;;;-145.11;40.94
63033;BME280;49121;38.932;-9.018;2023-04-08T08:43:56;111992.50;;;-145.11;39.92
63033;BME280;49121;38.932;-9.018;2023-04-08T08:45:59;111992.50;;;-145.11;39.70
63033;BME280;49121;38.932;-9.018;2023-04-08T08:47:59;111992.50;;;-145.11;39.50
63033;BME280;49121;38.932;-9.018;2023-04-08T08:50:18;111992.50;;;-145.11;39.53
63033;BME280;49121;38.932;-9.018;2023-04-08T08:52:37;111992.50;;;-145.11;38.81
63033;BME280;49121;38.932;-9.018;2023-04-08T08:54:41;111992.50;;;-145.11;38.56
63033;BME280;49121;38.932;-9.018;2023-04-08T08:56:41;111992.50;;;-145.11;38.15
63033;BME280;49121;38.932;-9.018;2023-04-08T08:58:54;111992.50;;;-145.11;37.82
63033;BME280;49121;38.932;-9.018;2023-04-08T09:00:54;111992.50;;;-145.11;37.84
63033;BME280;49121;38.932;-9.018;2023-04-08T09:02:55;111992.50;;;-145.11;37.82
63033;BME280;49121;38.932;-9.018;2023-04-08T09:04:56;111992.50;;;-145.11;37.69
63033;BME280;49121;38.932;-9.018;2023-04-08T09:07:07;111992.50;;;-145.11;37.10
63033;BME280;49121;38.932;-9.018;2023-04-08T09:09:08;111992.50;;;-145.11;36.79
63033;BME280;49121;38.932;-9.018;2023-04-08T09:18:43;111992.50;;;-145.11;34.33
63033;BME280;49121;38.932;-9.018;2023-04-08T09:20:36;111992.50;;;-145.11;32.90
63033;BME280;49121;38.932;-9.018;2023-04-08T09:24:51;111992.50;;;-145.11;31.30
63033;BME280;49121;38.932;-9.018;2023-04-08T09:29:10;111992.50;;;-145.11;31.42
63033;BME280;49121;38.932;-9.018;2023-04-08T09:33:19;111992.50;;;-145.11;31.71
63033;BME280;49121;38.932;-9.018;2023-04-08T09:35:19;111992.50;;;-145.11;32.31
63033;BME280;49121;38.932;-9.018;2023-04-08T09:37:20;111992.50;;;-145.11;32.40
63033;BME280;49121;38.932;-9.018;2023-04-08T09:39:21;111992.50;;;-145.11;32.46
63033;BME280;49121;38.932;-9.018;2023-04-08T09:41:24;111992.50;;;-145.11;32.92
63033;BME280;49121;38.932;-9.018;2023-04-08T09:43:27;111992.50;;;-145.11;32.52
63033;BME280;49121;38.932;-9.018;2023-04-08T09:45:27;111992.50;;;-145.11;32.77
63033;BME280;49121;38.932;-9.018;2023-04-08T09:50:06;111992.50;;;-145.11;33.62
63033;BME280;49121;38.932;-9.018;2023-04-08T09:55:06;111992.50;;;-145.11;32.92
63033;BME280;49121;38.932;-9.018;2023-04-08T09:59:28;111992.50;;;-145.11;33.18
63033;BME280;49121;38.932;-9.018;2023-04-08T10:01:36;111992.50;;;-145.11;33.44
63033;BME280;49121;38.932;-9.018;2023-04-08T10:03:46;111992.50;;;-145.11;33.57
63033;BME280;49121;38.932;-9.018;2023-04-08T10:05:47;111992.50;;;-145.11;33.64
63033;BME280;49121;38.932;-9.018;2023-04-08T10:07:49;111992.50;;;-145.11;33.45
63033;BME280;49121;38.932;-9.018;2023-04-08T10:09:50;111992.50;;;-145.11;33.36
63033;BME280;49121;38.932;-9.018;2023-04-08T10:11:50;111992.50;;;-145.11;33.54
63033;BME280;49121;38.932;-9.018;2023-04-08T10:13:52;111992.50;;;-145.11;33.83
63033;BME280;49121;38.932;-9.018;2023-04-08T10:22:47;111992.50;;;-145.11;33.46
63033;BME280;49121;38.932;-9.018;2023-04-08T10:25:26;111992.50;;;-145.11;32.59
63033;BME280;49121;38.932;-9.018;2023-04-08T10:27:39;111992.50;;;-145.11;31.80
63033;BME280;49121;38.932;-9.018;2023-04-08T10:29:40;111992.50;;;-145.11;33.15
63033;BME280;49121;38.932;-9.018;2023-04-08T10:31:41;111992.50;;;-145.11;31.74
63033;BME280;49121;38.932;-9.018;2023-04-08T10:33:42;111992.50;;;-145.11;31.78
63033;BME280;49121;38.932;-9.018;2023-04-08T10:38:03;111992.50;;;-145.11;29.55
63033;BME280;49121;38.932;-9.018;2023-04-08T10:40:22;111992.50;;;-145.11;30.70
63033;BME280;49121;38.932;-9.018;2023-04-08T10:42:41;111992.50;;;-145.11;29.95
63033;BME280;49121;38.932;-9.018;2023-04-08T10:45:04;111992.50;;;-145.11;29.07
63033;BME280;49121;38.932;-9.018;2023-04-08T10:47:05;111992.50;;;-145.11;29.71
63033;BME280;49121;38.932;-9.018;2023-04-08T10:49:31;111992.50;;;-145.11;30.42
63033;BME280;49121;38.932;-9.018;2023-04-08T10:51:32;111992.50;;;-145.11;29.65
63033;BME280;49121;38.932;-9.018;2023-04-08T10:53:37;111992.50;;;-145.11;29.45
63033;BME280;49121;38.932;-9.018;2023-04-08T10:55:45;111992.50;;;-145.11;28.75
63033;BME280;49121;38.932;-9.018;2023-04-08T11:00:31;111992.50;;;-145.11;29.03
63033;BME280;49121;38.932;-9.018;2023-04-08T11:07:41;111992.50;;;-145.11;28.65
63033;BME280;49121;38.932;-9.018;2023-04-08T11:09:42;111992.50;;;-145.11;28.66
63033;BME280;49121;38.932;-9.018;2023-04-08T11:12:01;111992.50;;;-145.11;29.33
63033;BME280;49121;38.932;-9.018;2023-04-08T11:14:02;111992.50;;;-145.11;29.09
63033;BME280;49121;38.932;-9.018;2023-04-08T11:16:03;111992.50;;;-145.11;29.04
63033;BME280;49121;38.932;-9.018;2023-04-08T11:18:05;111992.50;;;-145.11;29.51
63033;BME280;49121;38.932;-9.018;2023-04-08T11:20:06;111992.50;;;-145.11;29.45
63033;BME280;49121;38.932;-9.018;2023-04-08T11:22:07;111992.50;;;-145.11;29.06
63033;BME280;49121;38.932;-9.018;2023-04-08T11:24:09;111992.50;;;-145.11;28.62
63033;BME280;49121;38.932;-9.018;2023-04-08T11:26:11;111992.50;;;-145.11;28.49
63033;BME280;49121;38.932;-9.018;2023-04-08T11:28:13;111992.50;;;-145.11;28.79
63033;BME280;49121;38.932;-9.018;2023-04-08T11:30:13;111992.50;;;-145.11;28.65
63033;BME280;49121;38.932;-9.018;2023-04-08T11:32:14;111992.50;;;-145.11;27.97
63033;BME280;49121;38.932;-9.018;2023-04-08T11:34:37;111992.50;;;-145.11;27.62
63033;BME280;49121;38.932;-9.018;2023-04-08T11:38:58;111992.50;;;-145.11;27.76
63033;BME280;49121;38.932;-9.018;2023-04-08T11:41:10;111992.50;;;-145.11;27.40
63033;BME280;49121;38.932;-9.018;2023-04-08T11:43:12;111992.50;;;-145.11;26.95
63033;BME280;49121;38.932;-9.018;2023-04-08T11:45:15;111992.50;;;-145.11;27.42
63033;BME280;49121;38.932;-9.018;2023-04-08T11:47:15;111992.50;;;-145.11;27.62
63033;BME280;49121;38.932;-9.018;2023-04-08T11:49:16;111992.50;;;-145.11;27.27
63033;BME280;49121;38.932;-9.018;2023-04-08T11:51:16;111992.50;;;-145.11;27.12
63033;BME280;49121;38.932;-9.018;2023-04-08T11:53:35;111992.50;;;-145.11;27.46
63033;BME280;49121;38.932;-9.018;2023-04-08T11:55:55;111992.50;;;-145.11;27.27
63033;BME280;49121;38.932;-9.018;2023-04-08T11:58:00;111992.50;;;-145.11;27.16
63033;BME280;49121;38.932;-9.018;2023-04-08T12:00:01;111992.50;;;-145.11;27.27
63033;BME280;49121;38.932;-9.018;2023-04-08T12:02:11;111992.50;;;-145.11;27.23
63033;BME280;49121;38.932;-9.018;2023-04-08T12:04:11;111992.50;;;-145.11;27.05
63033;BME280;49121;38.932;-9.018;2023-04-08T12:08:53;111992.50;;;-145.11;26.92
63033;BME280;49121;38.932;-9.018;2023-04-08T12:10:54;111992.50;;;-145.11;26.88
63033;BME280;49121;38.932;-9.018;2023-04-08T12:12:54;111992.50;;;-145.11;26.64
63033;BME280;49121;38.932;-9.018;2023-04-08T12:17:33;111992.50;;;-145.11;26.04
63033;BME280;49121;38.932;-9.018;2023-04-08T12:22:11;111992.50;;;-145.11;25.75
63033;BME280;49121;38.932;-9.018;2023-04-08T12:24:12;111992.50;;;-145.11;25.90
63033;BME280;49121;38.932;-9.018;2023-04-08T12:26:12;111992.50;;;-145.11;25.63